createdAt,value
2023-06-30T00:01:37.419Z,76.41
2023-06-30T00:04:04.433Z,75.86
2023-06-30T00:06:31.101Z,74.59
2023-06-30T00:08:57.936Z,74.83
2023-06-30T00:11:24.701Z,74.80
2023-06-30T00:13:52.789Z,75.59
2023-06-30T00:16:20.603Z,76.38
2023-06-30T00:18:47.250Z,75.30
2023-06-30T00:21:14.333Z,75.85
2023-06-30T00:23:41.175Z,75.80
2023-06-30T00:26:07.816Z,75.37
2023-06-30T00:28:34.494Z,75.87
2023-06-30T00:31:01.225Z,75.71
2023-06-30T00:33:27.897Z,76.56
2023-06-30T00:35:54.522Z,75.46
2023-06-30T00:38:21.323Z,75.34
2023-06-30T00:40:48.034Z,76.22
2023-06-30T00:43:14.900Z,76.61
2023-06-30T00:45:41.607Z,76.71
2023-06-30T00:48:08.228Z,76.16
2023-06-30T00:50:35.265Z,76.26
2023-06-30T00:53:02.360Z,75.97
2023-06-30T00:55:29.794Z,75.97
2023-06-30T00:57:56.428Z,76.47
2023-06-30T01:00:23.293Z,77.61
2023-06-30T01:03:04.293Z,77.52
2023-06-30T01:05:50.217Z,79.49
2023-06-30T01:08:46.479Z,80.75
2023-06-30T01:11:13.420Z,79.71
2023-06-30T01:13:42.963Z,80.87
2023-06-30T01:16:10.646Z,80.29
2023-06-30T01:18:37.809Z,80.33
2023-06-30T01:21:06.319Z,79.74
2023-06-30T01:23:36.616Z,79.50
2023-06-30T01:26:04.420Z,79.43
2023-06-30T01:28:32.083Z,78.74
2023-06-30T01:31:00.591Z,78.75
2023-06-30T01:33:28.119Z,78.99
2023-06-30T01:35:55.418Z,79.30
2023-06-30T01:38:22.068Z,78.62
2023-06-30T01:40:49.516Z,78.51
2023-06-30T01:43:16.985Z,78.78
2023-06-30T01:45:44.078Z,79.13
2023-06-30T01:48:11.132Z,79.11
2023-06-30T01:50:39.716Z,79.03
2023-06-30T01:53:06.594Z,78.86
2023-06-30T01:55:33.506Z,79.69
2023-06-30T01:58:00.189Z,79.93
2023-06-30T02:00:26.839Z,79.50
2023-06-30T02:02:53.757Z,80.16
2023-06-30T02:05:20.491Z,78.85
2023-06-30T02:07:47.157Z,80.51
2023-06-30T02:10:13.875Z,81.25
2023-06-30T02:12:40.552Z,80.72
2023-06-30T02:15:07.622Z,83.52
2023-06-30T02:17:34.443Z,84.26
2023-06-30T02:20:02.182Z,82.07
2023-06-30T02:22:28.791Z,80.87
2023-06-30T02:24:55.432Z,82.84
2023-06-30T02:27:22.053Z,83.79
2023-06-30T02:29:48.705Z,82.00
2023-06-30T02:32:15.366Z,81.78
2023-06-30T02:34:42.156Z,81.66
2023-06-30T02:37:08.807Z,81.52
2023-06-30T02:39:35.480Z,82.42
2023-06-30T02:42:02.270Z,81.59
2023-06-30T02:44:28.977Z,81.91
2023-06-30T02:46:55.755Z,81.19
2023-06-30T02:49:23.720Z,81.75
2023-06-30T02:51:50.400Z,83.70
2023-06-30T02:54:17.108Z,82.79
2023-06-30T02:56:43.765Z,83.13
2023-06-30T02:59:10.378Z,81.56
2023-06-30T03:01:37.237Z,82.13
2023-06-30T03:04:04.279Z,82.97
2023-06-30T03:06:31.317Z,81.71
2023-06-30T03:08:57.950Z,84.79
2023-06-30T03:11:25.669Z,84.85
2023-06-30T03:13:52.389Z,83.92
2023-06-30T03:16:19.531Z,82.82
2023-06-30T03:18:46.260Z,82.85
2023-06-30T03:21:12.899Z,83.94
2023-06-30T03:23:39.545Z,84.45
2023-06-30T03:26:06.284Z,83.40
2023-06-30T03:28:32.924Z,84.26
2023-06-30T03:30:59.672Z,86.90
2023-06-30T03:33:26.406Z,87.92
2023-06-30T03:35:53.049Z,89.42
2023-06-30T03:38:19.718Z,87.55
2023-06-30T03:40:46.369Z,88.46
2023-06-30T03:43:13.060Z,88.63
2023-06-30T03:45:39.706Z,90.69
2023-06-30T03:48:06.602Z,91.10
2023-06-30T03:50:33.405Z,90.40
2023-06-30T03:53:00.061Z,90.34
2023-06-30T03:55:26.841Z,89.52
2023-06-30T03:57:53.510Z,91.89
2023-06-30T04:00:20.583Z,91.77
2023-06-30T04:02:47.309Z,90.01
2023-06-30T04:05:13.992Z,89.18
2023-06-30T04:07:40.700Z,90.02
2023-06-30T04:10:07.894Z,91.71
2023-06-30T04:12:34.611Z,93.59
2023-06-30T04:15:01.251Z,92.77
2023-06-30T04:17:27.940Z,93.35
2023-06-30T04:19:54.598Z,94.68
2023-06-30T04:22:22.259Z,96.55
2023-06-30T04:24:49.023Z,98.65
2023-06-30T04:27:15.724Z,98.22
2023-06-30T04:29:42.452Z,96.55
2023-06-30T04:32:09.291Z,98.30
2023-06-30T04:34:36.227Z,97.92
2023-06-30T04:37:02.944Z,98.20
2023-06-30T04:39:29.598Z,97.42
2023-06-30T04:41:56.243Z,100.00
2023-06-30T04:44:22.927Z,100.00
2023-06-30T04:46:49.547Z,100.00
2023-06-30T04:49:16.383Z,100.00
2023-06-30T04:51:43.043Z,100.00
2023-06-30T04:54:09.683Z,100.00
2023-06-30T04:56:36.296Z,100.00
2023-06-30T04:59:02.923Z,100.00
2023-06-30T05:01:29.602Z,99.59
2023-06-30T05:03:56.335Z,98.40
2023-06-30T05:06:23.054Z,97.86
2023-06-30T05:08:49.763Z,97.91
2023-06-30T05:11:16.443Z,90.00
2023-06-30T05:13:43.094Z,89.33
2023-06-30T05:16:12.495Z,91.31
2023-06-30T05:18:39.315Z,93.09
2023-06-30T05:21:07.857Z,94.20
2023-06-30T05:23:34.576Z,92.21
2023-06-30T05:26:01.224Z,94.13
2023-06-30T05:28:27.870Z,92.64
2023-06-30T05:30:54.507Z,91.87
2023-06-30T05:33:21.174Z,89.88
2023-06-30T05:35:47.977Z,91.40
2023-06-30T05:38:14.582Z,89.84
2023-06-30T05:40:41.214Z,88.95
2023-06-30T05:43:07.839Z,90.71
2023-06-30T05:45:34.640Z,92.29
2023-06-30T05:48:01.429Z,87.58
2023-06-30T05:50:28.086Z,86.02
2023-06-30T05:52:54.837Z,84.37
2023-06-30T05:55:21.573Z,86.76
2023-06-30T05:57:48.508Z,85.87
2023-06-30T06:00:15.663Z,86.77
2023-06-30T06:02:42.402Z,88.35
2023-06-30T06:05:09.550Z,86.00
2023-06-30T06:07:36.511Z,84.89
2023-06-30T06:10:03.278Z,88.44
2023-06-30T06:12:29.907Z,86.42
2023-06-30T06:14:56.675Z,78.44
2023-06-30T06:17:23.411Z,73.63
2023-06-30T06:19:50.112Z,76.87
2023-06-30T06:22:16.899Z,78.33
2023-06-30T06:24:43.557Z,76.57
2023-06-30T06:27:10.313Z,76.58
2023-06-30T06:29:37.119Z,78.23
2023-06-30T06:32:04.001Z,79.42
2023-06-30T06:34:30.638Z,78.38
2023-06-30T06:36:57.302Z,77.77
2023-06-30T06:39:24.009Z,72.79
2023-06-30T06:41:50.704Z,72.71
2023-06-30T06:44:17.592Z,71.86
2023-06-30T06:46:44.451Z,71.38
2023-06-30T06:49:11.638Z,75.00
2023-06-30T06:51:38.284Z,72.01
2023-06-30T06:54:04.937Z,67.48
2023-06-30T06:56:31.821Z,67.58
2023-06-30T06:58:58.454Z,67.11
2023-06-30T07:01:25.140Z,65.59
2023-06-30T07:03:51.833Z,66.45
2023-06-30T07:06:18.580Z,68.28
2023-06-30T07:08:45.820Z,65.74
2023-06-30T07:11:12.467Z,66.01
2023-06-30T07:13:39.117Z,62.70
2023-06-30T07:16:06.163Z,62.92
2023-06-30T07:18:34.764Z,62.01
2023-06-30T07:21:01.496Z,63.73
2023-06-30T07:23:28.158Z,66.36
2023-06-30T07:25:54.815Z,64.66
2023-06-30T07:28:21.522Z,62.77
2023-06-30T07:30:48.231Z,62.97
2023-06-30T07:33:14.929Z,56.85
2023-06-30T07:35:41.780Z,56.93
2023-06-30T07:38:08.461Z,59.32
2023-06-30T07:40:46.501Z,58.09
2023-06-30T07:43:21.358Z,55.56
2023-06-30T07:45:48.316Z,59.06
2023-06-30T07:48:15.333Z,57.74
2023-06-30T07:50:50.759Z,56.87
2023-06-30T07:53:22.004Z,53.07
2023-06-30T07:55:48.656Z,51.89
2023-06-30T07:58:15.344Z,53.46
2023-06-30T08:00:41.981Z,54.39
2023-06-30T08:03:08.851Z,53.88
2023-06-30T08:05:35.706Z,49.60
2023-06-30T08:08:02.446Z,48.29
2023-06-30T08:10:29.143Z,48.53
2023-06-30T08:12:55.868Z,49.00
2023-06-30T08:15:22.509Z,52.71
2023-06-30T08:17:55.732Z,51.73
2023-06-30T08:20:26.806Z,48.50
2023-06-30T08:22:54.259Z,47.22
2023-06-30T08:25:25.390Z,52.63
2023-06-30T08:27:52.740Z,48.55
2023-06-30T08:30:22.778Z,47.40
2023-06-30T08:32:50.835Z,49.00
2023-06-30T08:35:17.846Z,48.04
2023-06-30T08:37:44.573Z,45.23
2023-06-30T08:40:11.890Z,46.65
2023-06-30T08:42:41.913Z,47.07
2023-06-30T08:45:10.261Z,46.55
2023-06-30T08:47:38.656Z,47.35
2023-06-30T08:50:07.628Z,45.17
2023-06-30T08:52:35.573Z,49.28
2023-06-30T08:55:03.454Z,46.04
2023-06-30T08:57:30.986Z,44.75
2023-06-30T08:59:57.638Z,44.25
2023-06-30T09:02:24.472Z,45.05
2023-06-30T09:04:51.628Z,43.60
2023-06-30T09:07:27.050Z,46.20
2023-06-30T09:10:04.273Z,43.26
2023-06-30T09:12:30.984Z,42.98
2023-06-30T09:15:00.672Z,41.06
2023-06-30T09:17:27.616Z,43.81
2023-06-30T09:19:54.327Z,43.45
2023-06-30T09:22:52.340Z,42.06
2023-06-30T09:25:29.102Z,41.08
2023-06-30T09:27:56.501Z,42.17
2023-06-30T09:30:33.354Z,42.71
2023-06-30T09:33:00.422Z,43.34
2023-06-30T09:35:27.216Z,41.43
2023-06-30T09:37:54.721Z,44.01
2023-06-30T09:40:26.144Z,43.34
2023-06-30T09:42:53.950Z,37.25
2023-06-30T09:45:21.212Z,39.15
2023-06-30T09:47:54.778Z,41.42
2023-06-30T09:50:28.593Z,41.16
2023-06-30T09:52:55.373Z,40.35
2023-06-30T09:55:22.047Z,40.54
2023-06-30T09:57:48.702Z,38.57
2023-06-30T10:00:29.807Z,39.51
2023-06-30T10:03:07.108Z,39.95
2023-06-30T10:05:34.041Z,37.93
2023-06-30T10:08:01.868Z,39.31
2023-06-30T10:10:29.549Z,42.48
2023-06-30T10:13:00.254Z,40.69
2023-06-30T10:15:27.651Z,39.81
2023-06-30T10:17:55.281Z,39.68
2023-06-30T10:20:27.849Z,37.49
2023-06-30T10:23:02.339Z,38.92
2023-06-30T10:25:31.199Z,38.70
2023-06-30T10:27:58.600Z,40.36
2023-06-30T10:30:26.034Z,38.82
2023-06-30T10:32:53.159Z,40.07
2023-06-30T10:35:22.027Z,38.45
2023-06-30T10:37:49.228Z,41.40
2023-06-30T10:40:36.258Z,40.99
2023-06-30T10:43:07.028Z,39.12
2023-06-30T10:46:08.896Z,41.32
2023-06-30T10:48:37.211Z,41.58
2023-06-30T10:51:05.517Z,39.25
2023-06-30T10:53:32.284Z,38.11
2023-06-30T10:55:59.038Z,38.35
2023-06-30T10:58:27.064Z,37.92
2023-06-30T11:01:04.608Z,37.64
2023-06-30T11:03:56.405Z,40.62
2023-06-30T11:06:23.855Z,36.72
2023-06-30T11:09:03.907Z,36.05
2023-06-30T11:11:31.217Z,36.73
2023-06-30T11:14:07.788Z,37.28
2023-06-30T11:17:04.814Z,37.35
2023-06-30T11:19:31.641Z,37.93
2023-06-30T11:22:23.914Z,36.94
2023-06-30T11:24:50.669Z,36.34
2023-06-30T11:27:18.154Z,36.81
2023-06-30T11:29:47.780Z,36.91
2023-06-30T11:32:18.184Z,38.42
2023-06-30T11:34:45.630Z,36.52
2023-06-30T11:37:12.289Z,39.93
2023-06-30T11:39:38.925Z,38.84
2023-06-30T11:42:05.893Z,36.08
2023-06-30T11:44:36.954Z,36.09
2023-06-30T11:47:04.020Z,36.41
2023-06-30T11:49:35.861Z,36.78
2023-06-30T11:52:02.556Z,35.37
2023-06-30T11:54:37.023Z,35.52
2023-06-30T11:57:04.995Z,36.76
2023-06-30T11:59:32.377Z,35.75
2023-06-30T12:01:59.708Z,36.59
2023-06-30T12:04:36.953Z,36.71
2023-06-30T12:07:05.073Z,38.53
2023-06-30T12:09:35.441Z,36.71
2023-06-30T12:12:02.195Z,37.40
2023-06-30T12:14:28.882Z,38.04
2023-06-30T12:16:55.651Z,36.60
2023-06-30T12:19:28.618Z,37.49
2023-06-30T12:22:00.299Z,37.01
2023-06-30T12:24:31.918Z,38.32
2023-06-30T12:26:58.718Z,36.62
2023-06-30T12:29:25.430Z,38.20
2023-06-30T12:31:52.226Z,35.84
2023-06-30T12:34:36.447Z,37.58
2023-06-30T12:37:03.814Z,37.47
2023-06-30T12:39:30.655Z,39.23
2023-06-30T12:41:57.515Z,38.70
2023-06-30T12:44:24.374Z,35.73
2023-06-30T12:47:03.698Z,37.94
2023-06-30T12:49:30.356Z,38.48
2023-06-30T12:51:57.365Z,36.17
2023-06-30T12:54:24.158Z,38.30
2023-06-30T12:56:51.170Z,37.63
2023-06-30T12:59:18.429Z,39.41
2023-06-30T13:01:46.256Z,36.58
2023-06-30T13:04:13.110Z,36.25
2023-06-30T13:06:41.247Z,36.35
2023-06-30T13:09:08.336Z,37.75
2023-06-30T13:11:35.041Z,36.60
2023-06-30T13:14:02.720Z,37.45
2023-06-30T13:16:29.566Z,33.91
2023-06-30T13:18:56.550Z,37.20
2023-06-30T13:21:23.244Z,38.80
2023-06-30T13:23:49.912Z,36.48
2023-06-30T13:26:16.977Z,35.71
2023-06-30T13:28:43.808Z,34.69
2023-06-30T13:31:10.518Z,37.57
2023-06-30T13:33:37.232Z,35.36
2023-06-30T13:36:04.861Z,36.33
2023-06-30T13:38:31.698Z,33.77
2023-06-30T13:40:58.338Z,35.82
2023-06-30T13:43:25.014Z,33.74
2023-06-30T13:45:51.688Z,37.62
2023-06-30T13:48:18.356Z,35.37
2023-06-30T13:50:44.999Z,34.76
2023-06-30T13:53:11.711Z,40.78
2023-06-30T13:55:38.397Z,34.56
2023-06-30T13:58:05.111Z,36.38
2023-06-30T14:00:31.746Z,33.67
2023-06-30T14:02:58.648Z,34.63
2023-06-30T14:05:25.450Z,36.37
2023-06-30T14:07:52.346Z,33.49
2023-06-30T14:10:18.974Z,35.28
2023-06-30T14:12:46.396Z,35.06
2023-06-30T14:15:13.123Z,36.28
2023-06-30T14:17:39.770Z,33.38
2023-06-30T14:20:07.077Z,35.05
2023-06-30T14:22:33.715Z,34.69
2023-06-30T14:25:00.396Z,35.07
2023-06-30T14:27:27.179Z,34.96
2023-06-30T14:29:53.901Z,34.52
2023-06-30T14:32:23.744Z,35.27
2023-06-30T14:34:50.748Z,32.88
2023-06-30T14:37:17.428Z,33.32
2023-06-30T14:39:44.052Z,33.12
2023-06-30T14:42:22.968Z,34.10
2023-06-30T14:44:57.704Z,36.12
2023-06-30T14:47:24.431Z,33.26
2023-06-30T14:49:51.070Z,33.29
2023-06-30T14:52:17.718Z,32.94
2023-06-30T14:54:44.360Z,33.00
2023-06-30T14:57:11.047Z,33.39
2023-06-30T14:59:37.653Z,33.27
2023-06-30T15:02:04.592Z,33.17
2023-06-30T15:04:31.361Z,34.10
2023-06-30T15:06:58.020Z,34.09
2023-06-30T15:09:24.723Z,33.37
2023-06-30T15:11:51.378Z,33.93
2023-06-30T15:14:18.149Z,34.97
2023-06-30T15:16:44.910Z,34.24
2023-06-30T15:19:11.567Z,31.64
2023-06-30T15:21:38.282Z,32.80
2023-06-30T15:24:05.014Z,32.05
2023-06-30T15:26:31.705Z,32.82
2023-06-30T15:28:58.520Z,33.74
2023-06-30T15:31:25.164Z,31.83
2023-06-30T15:33:51.901Z,32.27
2023-06-30T15:36:18.641Z,33.65
2023-06-30T15:38:45.301Z,32.30
2023-06-30T15:41:22.748Z,33.66
2023-06-30T15:43:50.563Z,31.74
2023-06-30T15:46:18.323Z,32.97
2023-06-30T15:48:44.986Z,33.28
2023-06-30T15:51:12.746Z,32.51
2023-06-30T15:53:39.605Z,31.74
2023-06-30T15:56:06.328Z,33.61
2023-06-30T15:58:33.120Z,34.03
2023-06-30T16:00:59.786Z,32.88
2023-06-30T16:03:26.592Z,33.33
2023-06-30T16:05:53.517Z,35.00
2023-06-30T16:08:20.228Z,33.17
2023-06-30T16:10:46.977Z,33.32
2023-06-30T16:13:14.252Z,35.06
2023-06-30T16:15:41.449Z,36.52
2023-06-30T16:18:08.296Z,33.54
2023-06-30T16:20:35.021Z,33.41
2023-06-30T16:23:01.680Z,35.26
2023-06-30T16:25:28.353Z,31.20
2023-06-30T16:27:54.997Z,32.19
2023-06-30T16:30:30.304Z,32.32
2023-06-30T16:32:58.610Z,33.42
2023-06-30T16:35:26.158Z,33.09
2023-06-30T16:37:56.865Z,32.03
2023-06-30T16:40:24.252Z,32.48
2023-06-30T16:42:50.992Z,32.66
2023-06-30T16:45:17.860Z,31.94
2023-06-30T16:47:46.168Z,31.67
2023-06-30T16:50:15.146Z,31.88
2023-06-30T16:52:41.773Z,32.52
2023-06-30T16:55:10.058Z,31.88
2023-06-30T16:57:40.011Z,31.15
2023-06-30T17:00:10.450Z,30.92
2023-06-30T17:02:40.413Z,37.69
2023-06-30T17:05:07.885Z,33.21
2023-06-30T17:07:34.639Z,34.04
2023-06-30T17:10:01.299Z,33.33
2023-06-30T17:12:27.935Z,33.77
2023-06-30T17:14:54.679Z,33.22
2023-06-30T17:17:23.822Z,37.86
2023-06-30T17:19:52.332Z,34.17
2023-06-30T17:22:18.991Z,34.68
2023-06-30T17:24:45.668Z,35.01
2023-06-30T17:27:12.540Z,38.60
2023-06-30T17:29:39.269Z,36.73
2023-06-30T17:32:06.746Z,38.28
2023-06-30T17:34:33.519Z,38.26
2023-06-30T17:37:08.000Z,41.35
2023-06-30T17:39:35.234Z,34.53
2023-06-30T17:42:02.089Z,35.60
2023-06-30T17:44:29.555Z,39.26
2023-06-30T17:46:57.480Z,35.65
2023-06-30T17:49:27.642Z,36.75
2023-06-30T17:51:55.075Z,38.00
2023-06-30T17:54:22.275Z,39.71
2023-06-30T17:56:49.364Z,39.85
2023-06-30T17:59:16.341Z,41.48
2023-06-30T18:01:44.354Z,42.81
2023-06-30T18:04:12.025Z,43.08
2023-06-30T18:07:00.413Z,44.25
2023-06-30T18:09:28.849Z,42.24
2023-06-30T18:11:55.558Z,42.09
2023-06-30T18:14:22.499Z,43.01
2023-06-30T18:16:49.218Z,44.77
2023-06-30T18:19:18.589Z,44.32
2023-06-30T18:21:47.911Z,46.07
2023-06-30T18:24:15.377Z,45.76
2023-06-30T18:26:42.601Z,45.19
2023-06-30T18:29:09.249Z,45.43
2023-06-30T18:31:35.940Z,46.16
2023-06-30T18:34:02.688Z,46.30
2023-06-30T18:36:29.652Z,47.52
2023-06-30T18:38:56.314Z,47.22
2023-06-30T18:41:23.372Z,47.63
2023-06-30T18:43:50.708Z,47.69
2023-06-30T18:46:23.334Z,48.70
2023-06-30T18:48:50.017Z,47.81
2023-06-30T18:51:16.710Z,47.27
2023-06-30T18:53:43.428Z,47.41
2023-06-30T18:56:10.101Z,48.33
2023-06-30T18:58:36.856Z,47.16
2023-06-30T19:01:03.545Z,48.90
2023-06-30T19:03:30.321Z,49.32
2023-06-30T19:05:58.103Z,48.00
2023-06-30T19:08:24.946Z,48.37
2023-06-30T19:10:51.661Z,50.33
2023-06-30T19:13:18.265Z,50.87
2023-06-30T19:15:45.100Z,51.04
2023-06-30T19:18:12.420Z,50.54
2023-06-30T19:20:39.291Z,50.34
2023-06-30T19:23:05.978Z,51.31
2023-06-30T19:25:33.088Z,51.41
2023-06-30T19:27:59.766Z,51.57
2023-06-30T19:30:26.438Z,51.28
2023-06-30T19:32:53.106Z,52.33
2023-06-30T19:35:20.018Z,52.52
2023-06-30T19:37:47.061Z,52.25
2023-06-30T19:40:13.716Z,52.90
2023-06-30T19:42:40.348Z,52.67
2023-06-30T19:45:07.378Z,52.86
2023-06-30T19:47:34.077Z,52.55
2023-06-30T19:50:01.627Z,53.01
2023-06-30T19:52:28.325Z,52.62
2023-06-30T19:54:54.922Z,51.28
2023-06-30T19:57:21.535Z,51.01
2023-06-30T19:59:50.347Z,51.39
2023-06-30T20:02:17.060Z,52.01
2023-06-30T20:04:43.836Z,53.31
2023-06-30T20:07:10.549Z,53.07
2023-06-30T20:09:37.247Z,52.45
2023-06-30T20:12:04.166Z,54.33
2023-06-30T20:14:31.937Z,53.52
2023-06-30T20:16:58.653Z,53.76
2023-06-30T20:19:25.315Z,54.91
2023-06-30T20:21:51.987Z,54.77
2023-06-30T20:24:18.678Z,55.67
2023-06-30T20:26:45.369Z,54.93
2023-06-30T20:29:13.116Z,55.75
2023-06-30T20:31:39.835Z,56.25
2023-06-30T20:34:06.513Z,57.69
2023-06-30T20:36:33.182Z,56.55
2023-06-30T20:38:59.812Z,57.94
2023-06-30T20:41:26.451Z,56.37
2023-06-30T20:43:53.136Z,57.40
2023-06-30T20:46:19.855Z,56.50
2023-06-30T20:48:46.528Z,57.23
2023-06-30T20:51:13.250Z,55.86
2023-06-30T20:53:39.896Z,57.62
2023-06-30T20:56:06.536Z,56.98
2023-06-30T20:58:33.357Z,57.34
2023-06-30T21:01:00.084Z,57.15
2023-06-30T21:03:26.743Z,57.77
2023-06-30T21:05:53.502Z,58.46
2023-06-30T21:08:20.147Z,57.45
2023-06-30T21:10:47.103Z,58.44
2023-06-30T21:13:14.014Z,57.99
2023-06-30T21:15:40.633Z,58.35
2023-06-30T21:18:07.494Z,58.77
2023-06-30T21:20:34.189Z,58.48
2023-06-30T21:23:00.870Z,58.03
2023-06-30T21:25:27.611Z,58.60
2023-06-30T21:27:54.234Z,59.61
2023-06-30T21:30:20.870Z,60.04
2023-06-30T21:32:47.579Z,60.21
2023-06-30T21:35:14.211Z,59.91
2023-06-30T21:37:40.964Z,59.70
2023-06-30T21:40:08.173Z,59.96
2023-06-30T21:42:34.870Z,60.29
2023-06-30T21:45:01.623Z,58.82
2023-06-30T21:47:28.273Z,59.35
2023-06-30T21:49:54.936Z,58.94
2023-06-30T21:52:21.689Z,58.63
2023-06-30T21:54:49.090Z,58.95
2023-06-30T21:57:16.399Z,59.19
2023-06-30T21:59:43.045Z,60.14
2023-06-30T22:02:09.798Z,59.89
2023-06-30T22:04:36.592Z,60.56
2023-06-30T22:07:15.655Z,60.15
2023-06-30T22:09:42.299Z,61.40
2023-06-30T22:12:09.887Z,61.51
2023-06-30T22:14:36.524Z,61.21
2023-06-30T22:17:03.348Z,61.29
2023-06-30T22:19:31.025Z,61.34
2023-06-30T22:21:57.733Z,61.11
2023-06-30T22:24:25.274Z,61.14
2023-06-30T22:26:51.987Z,60.27
2023-06-30T22:29:18.612Z,60.56
2023-06-30T22:31:45.649Z,62.14
2023-06-30T22:34:12.793Z,62.45
2023-06-30T22:36:39.463Z,62.33
2023-06-30T22:39:06.123Z,62.69
2023-06-30T22:41:32.877Z,63.24
2023-06-30T22:43:59.490Z,62.65
2023-06-30T22:46:26.438Z,62.53
2023-06-30T22:48:53.118Z,62.56
2023-06-30T22:51:19.757Z,64.05
2023-06-30T22:53:46.409Z,64.27
2023-06-30T22:56:13.047Z,64.83
2023-06-30T22:58:39.725Z,64.73
2023-06-30T23:01:06.504Z,65.62
2023-06-30T23:03:33.318Z,65.43
2023-06-30T23:06:00.019Z,63.33
2023-06-30T23:08:26.693Z,66.20
2023-06-30T23:10:53.324Z,67.68
2023-06-30T23:13:19.968Z,67.11
2023-06-30T23:15:46.567Z,65.76
2023-06-30T23:18:13.438Z,66.97
2023-06-30T23:20:40.240Z,66.07
2023-06-30T23:23:06.871Z,67.38
2023-06-30T23:25:33.569Z,67.34
2023-06-30T23:28:00.320Z,66.40
2023-06-30T23:30:27.250Z,66.66
2023-06-30T23:32:54.090Z,65.56
2023-06-30T23:35:20.750Z,66.94
2023-06-30T23:37:47.417Z,67.17
2023-06-30T23:40:14.100Z,67.00
2023-06-30T23:42:40.767Z,66.87
2023-06-30T23:45:07.994Z,67.87
2023-06-30T23:47:34.716Z,67.44
2023-06-30T23:50:01.596Z,68.23
2023-06-30T23:52:28.236Z,68.89
2023-06-30T23:54:54.850Z,68.61
2023-06-30T23:57:21.578Z,68.03
2023-06-30T23:59:48.184Z,68.03
